Hauptseite
METAR-TAF:

METAR-TAF

Flughäfen :

Troyes, Frankreich

Breite: 48-20N, Länge: 004-01E, Höhe: 118 m

Beobachtung

Neuester Wetterbericht von vor 24 Minuten, um 04:00 UTC
Wind 2 kt aus Südost
Temperatur -1°C
Luftfeuchtigkeit 100%
Luftdruck 1009 hPa
Sichtweite: 5000 m
feuchter Dunst

METAR: LFQB 170400Z AUTO 13002KT 5000 BR NSC M01/M01 Q1009

Zeit: 05:24 (04:24 UTC)


TAF: fehlend

Wetterbeobachtungen und Prognosen von mehr als 4000 Flughäfen (METAR und TAF Bericht).

Die verfügbaren Stationen werden durch gelbe und rote Markierungen auf der Karte dargestellt.

Führen Sie die Maus auf sie, um den Namen der Station zu sehen.

Darauf klicken, um die Beobachtung von Wetterbeobachtungen und Prognosen zu sehen.

Um die Karte zu ändern : klicken Sie auf den grünen Tasten mit einem schwarzen Kreuz Zum Vergrößern, auf den grünen Button mit einem Gedankenstrich zu verkleinern, oder auf die grünen Pfeile für benachbarte Karten.


METAR-TAF: